sensor_id;sensor_type;location;lat;lon;timestamp;P1;durP1;ratioP1;P2;durP2;ratioP2
13263;SDS011;6700;51.988;7.646;2023-04-22T00:00:15;10.80;;;8.67;;
13263;SDS011;6700;51.988;7.646;2023-04-22T00:02:42;10.27;;;9.13;;
13263;SDS011;6700;51.988;7.646;2023-04-22T00:05:09;10.30;;;9.30;;
13263;SDS011;6700;51.988;7.646;2023-04-22T00:07:41;11.13;;;10.03;;
13263;SDS011;6700;51.988;7.646;2023-04-22T00:10:09;10.27;;;9.17;;
13263;SDS011;6700;51.988;7.646;2023-04-22T00:12:36;10.90;;;9.43;;
13263;SDS011;6700;51.988;7.646;2023-04-22T00:15:04;10.27;;;9.30;;
13263;SDS011;6700;51.988;7.646;2023-04-22T00:17:31;11.40;;;9.40;;
13263;SDS011;6700;51.988;7.646;2023-04-22T00:19:58;10.13;;;8.80;;
13263;SDS011;6700;51.988;7.646;2023-04-22T00:22:26;11.60;;;8.67;;
13263;SDS011;6700;51.988;7.646;2023-04-22T00:24:53;10.30;;;9.20;;
13263;SDS011;6700;51.988;7.646;2023-04-22T00:27:20;12.37;;;9.10;;
13263;SDS011;6700;51.988;7.646;2023-04-22T00:29:47;12.80;;;8.83;;
13263;SDS011;6700;51.988;7.646;2023-04-22T00:32:14;9.40;;;8.50;;
13263;SDS011;6700;51.988;7.646;2023-04-22T00:34:42;9.57;;;8.50;;
13263;SDS011;6700;51.988;7.646;2023-04-22T00:37:09;11.13;;;9.27;;
13263;SDS011;6700;51.988;7.646;2023-04-22T00:39:36;10.53;;;9.50;;
13263;SDS011;6700;51.988;7.646;2023-04-22T00:42:05;9.60;;;8.60;;
13263;SDS011;6700;51.988;7.646;2023-04-22T00:44:32;9.67;;;8.77;;
13263;SDS011;6700;51.988;7.646;2023-04-22T00:47:01;10.67;;;9.57;;
13263;SDS011;6700;51.988;7.646;2023-04-22T00:49:29;10.70;;;9.60;;
13263;SDS011;6700;51.988;7.646;2023-04-22T00:51:57;9.93;;;8.73;;
13263;SDS011;6700;51.988;7.646;2023-04-22T00:54:24;9.10;;;8.27;;
13263;SDS011;6700;51.988;7.646;2023-04-22T00:56:51;9.37;;;8.47;;
13263;SDS011;6700;51.988;7.646;2023-04-22T00:59:18;10.07;;;9.07;;
13263;SDS011;6700;51.988;7.646;2023-04-22T01:01:46;9.97;;;9.07;;
13263;SDS011;6700;51.988;7.646;2023-04-22T01:04:13;11.13;;;9.13;;
13263;SDS011;6700;51.988;7.646;2023-04-22T01:06:42;9.93;;;8.93;;
13263;SDS011;6700;51.988;7.646;2023-04-22T01:09:09;9.43;;;8.53;;
13263;SDS011;6700;51.988;7.646;2023-04-22T01:11:36;10.00;;;9.00;;
13263;SDS011;6700;51.988;7.646;2023-04-22T01:14:03;10.20;;;9.20;;
13263;SDS011;6700;51.988;7.646;2023-04-22T01:16:30;10.07;;;8.83;;
13263;SDS011;6700;51.988;7.646;2023-04-22T01:19:01;13.73;;;9.43;;
13263;SDS011;6700;51.988;7.646;2023-04-22T01:21:28;13.30;;;9.80;;
13263;SDS011;6700;51.988;7.646;2023-04-22T01:23:59;10.20;;;9.07;;
13263;SDS011;6700;51.988;7.646;2023-04-22T01:26:26;13.20;;;9.90;;
13263;SDS011;6700;51.988;7.646;2023-04-22T01:28:54;10.37;;;9.30;;
13263;SDS011;6700;51.988;7.646;2023-04-22T01:31:21;10.33;;;9.33;;
13263;SDS011;6700;51.988;7.646;2023-04-22T01:33:48;10.87;;;9.77;;
13263;SDS011;6700;51.988;7.646;2023-04-22T01:36:16;12.10;;;9.40;;
13263;SDS011;6700;51.988;7.646;2023-04-22T01:38:43;10.37;;;9.30;;
13263;SDS011;6700;51.988;7.646;2023-04-22T01:41:14;10.47;;;9.57;;
13263;SDS011;6700;51.988;7.646;2023-04-22T01:43:42;10.90;;;9.80;;
13263;SDS011;6700;51.988;7.646;2023-04-22T01:46:10;10.53;;;9.43;;
13263;SDS011;6700;51.988;7.646;2023-04-22T01:48:37;10.77;;;9.77;;
13263;SDS011;6700;51.988;7.646;2023-04-22T01:51:04;10.90;;;8.90;;
13263;SDS011;6700;51.988;7.646;2023-04-22T01:53:31;10.53;;;9.53;;
13263;SDS011;6700;51.988;7.646;2023-04-22T01:55:58;10.07;;;9.07;;
13263;SDS011;6700;51.988;7.646;2023-04-22T01:58:29;9.63;;;8.73;;
13263;SDS011;6700;51.988;7.646;2023-04-22T02:00:56;10.50;;;9.50;;
13263;SDS011;6700;51.988;7.646;2023-04-22T02:03:23;10.17;;;9.17;;
13263;SDS011;6700;51.988;7.646;2023-04-22T02:05:50;9.93;;;8.83;;
13263;SDS011;6700;51.988;7.646;2023-04-22T02:08:17;10.43;;;8.50;;
13263;SDS011;6700;51.988;7.646;2023-04-22T02:10:44;10.30;;;8.77;;
13263;SDS011;6700;51.988;7.646;2023-04-22T02:13:11;10.40;;;9.40;;
13263;SDS011;6700;51.988;7.646;2023-04-22T02:15:39;9.20;;;8.40;;
13263;SDS011;6700;51.988;7.646;2023-04-22T02:18:06;10.37;;;9.43;;
13263;SDS011;6700;51.988;7.646;2023-04-22T02:20:35;10.07;;;9.10;;
13263;SDS011;6700;51.988;7.646;2023-04-22T02:23:02;10.47;;;9.47;;
13263;SDS011;6700;51.988;7.646;2023-04-22T02:25:30;10.63;;;9.63;;
13263;SDS011;6700;51.988;7.646;2023-04-22T02:27:57;10.83;;;9.73;;
13263;SDS011;6700;51.988;7.646;2023-04-22T02:30:24;9.90;;;8.90;;
13263;SDS011;6700;51.988;7.646;2023-04-22T02:32:51;9.37;;;8.57;;
13263;SDS011;6700;51.988;7.646;2023-04-22T02:35:18;10.63;;;9.73;;
13263;SDS011;6700;51.988;7.646;2023-04-22T02:37:46;10.07;;;9.00;;
13263;SDS011;6700;51.988;7.646;2023-04-22T02:40:13;11.03;;;9.93;;
13263;SDS011;6700;51.988;7.646;2023-04-22T02:42:40;10.80;;;9.80;;
13263;SDS011;6700;51.988;7.646;2023-04-22T02:45:07;10.13;;;9.13;;
13263;SDS011;6700;51.988;7.646;2023-04-22T02:47:34;11.17;;;10.17;;
13263;SDS011;6700;51.988;7.646;2023-04-22T02:50:01;12.73;;;11.53;;
13263;SDS011;6700;51.988;7.646;2023-04-22T02:52:28;12.80;;;11.50;;
13263;SDS011;6700;51.988;7.646;2023-04-22T02:54:55;12.53;;;11.33;;
13263;SDS011;6700;51.988;7.646;2023-04-22T02:57:22;11.83;;;10.63;;
13263;SDS011;6700;51.988;7.646;2023-04-22T02:59:50;12.43;;;11.10;;
13263;SDS011;6700;51.988;7.646;2023-04-22T03:02:17;12.93;;;11.00;;
13263;SDS011;6700;51.988;7.646;2023-04-22T03:04:44;11.80;;;10.60;;
13263;SDS011;6700;51.988;7.646;2023-04-22T03:07:11;12.67;;;11.37;;
13263;SDS011;6700;51.988;7.646;2023-04-22T03:09:38;13.37;;;11.63;;
13263;SDS011;6700;51.988;7.646;2023-04-22T03:12:06;13.57;;;12.17;;
13263;SDS011;6700;51.988;7.646;2023-04-22T03:14:33;13.30;;;12.03;;
13263;SDS011;6700;51.988;7.646;2023-04-22T03:17:00;12.87;;;11.67;;
13263;SDS011;6700;51.988;7.646;2023-04-22T03:19:28;13.77;;;12.47;;
13263;SDS011;6700;51.988;7.646;2023-04-22T03:21:55;12.97;;;11.77;;
13263;SDS011;6700;51.988;7.646;2023-04-22T03:24:23;14.60;;;13.10;;
13263;SDS011;6700;51.988;7.646;2023-04-22T03:26:50;14.17;;;12.67;;
13263;SDS011;6700;51.988;7.646;2023-04-22T03:29:17;13.73;;;12.33;;
13263;SDS011;6700;51.988;7.646;2023-04-22T03:31:44;13.33;;;12.03;;
13263;SDS011;6700;51.988;7.646;2023-04-22T03:34:11;12.80;;;11.50;;
13263;SDS011;6700;51.988;7.646;2023-04-22T03:36:39;14.33;;;12.93;;
13263;SDS011;6700;51.988;7.646;2023-04-22T03:39:06;15.27;;;13.60;;
13263;SDS011;6700;51.988;7.646;2023-04-22T03:41:33;14.57;;;13.10;;
13263;SDS011;6700;51.988;7.646;2023-04-22T03:44:00;14.80;;;13.40;;
13263;SDS011;6700;51.988;7.646;2023-04-22T03:46:28;16.47;;;13.90;;
13263;SDS011;6700;51.988;7.646;2023-04-22T03:48:55;14.80;;;13.40;;
13263;SDS011;6700;51.988;7.646;2023-04-22T03:51:22;14.13;;;12.83;;
13263;SDS011;6700;51.988;7.646;2023-04-22T03:53:49;14.77;;;13.47;;
13263;SDS011;6700;51.988;7.646;2023-04-22T03:56:17;14.93;;;13.40;;
13263;SDS011;6700;51.988;7.646;2023-04-22T03:58:44;15.20;;;13.70;;
13263;SDS011;6700;51.988;7.646;2023-04-22T04:01:11;15.80;;;14.37;;
13263;SDS011;6700;51.988;7.646;2023-04-22T04:03:38;15.70;;;14.20;;
13263;SDS011;6700;51.988;7.646;2023-04-22T04:06:06;15.03;;;13.53;;
13263;SDS011;6700;51.988;7.646;2023-04-22T04:08:33;14.93;;;13.40;;
13263;SDS011;6700;51.988;7.646;2023-04-22T04:11:00;14.90;;;13.43;;
13263;SDS011;6700;51.988;7.646;2023-04-22T04:13:27;16.07;;;14.37;;
13263;SDS011;6700;51.988;7.646;2023-04-22T04:15:58;16.33;;;14.00;;
13263;SDS011;6700;51.988;7.646;2023-04-22T04:18:25;15.83;;;14.23;;
13263;SDS011;6700;51.988;7.646;2023-04-22T04:20:54;15.63;;;14.23;;
13263;SDS011;6700;51.988;7.646;2023-04-22T04:23:22;15.27;;;13.77;;
13263;SDS011;6700;51.988;7.646;2023-04-22T04:25:49;16.23;;;14.70;;
13263;SDS011;6700;51.988;7.646;2023-04-22T04:28:17;14.70;;;13.20;;
13263;SDS011;6700;51.988;7.646;2023-04-22T04:30:44;15.60;;;14.00;;
13263;SDS011;6700;51.988;7.646;2023-04-22T04:33:12;15.07;;;13.53;;
13263;SDS011;6700;51.988;7.646;2023-04-22T04:35:41;15.53;;;14.10;;
13263;SDS011;6700;51.988;7.646;2023-04-22T04:38:09;16.40;;;14.70;;
13263;SDS011;6700;51.988;7.646;2023-04-22T04:40:37;15.17;;;13.60;;
13263;SDS011;6700;51.988;7.646;2023-04-22T04:43:04;15.40;;;13.80;;
13263;SDS011;6700;51.988;7.646;2023-04-22T04:45:34;14.33;;;13.03;;
13263;SDS011;6700;51.988;7.646;2023-04-22T04:48:04;15.43;;;13.93;;
13263;SDS011;6700;51.988;7.646;2023-04-22T04:50:32;14.87;;;13.43;;
13263;SDS011;6700;51.988;7.646;2023-04-22T04:52:59;15.37;;;13.80;;
13263;SDS011;6700;51.988;7.646;2023-04-22T04:55:26;15.93;;;14.37;;
13263;SDS011;6700;51.988;7.646;2023-04-22T04:57:53;16.17;;;14.40;;
13263;SDS011;6700;51.988;7.646;2023-04-22T05:00:20;16.83;;;15.13;;
13263;SDS011;6700;51.988;7.646;2023-04-22T05:02:48;14.93;;;13.53;;
13263;SDS011;6700;51.988;7.646;2023-04-22T05:05:15;15.97;;;14.37;;
13263;SDS011;6700;51.988;7.646;2023-04-22T05:07:42;17.20;;;13.97;;
13263;SDS011;6700;51.988;7.646;2023-04-22T05:10:10;15.57;;;14.07;;
13263;SDS011;6700;51.988;7.646;2023-04-22T05:12:37;16.23;;;14.63;;
13263;SDS011;6700;51.988;7.646;2023-04-22T05:15:04;15.23;;;13.83;;
13263;SDS011;6700;51.988;7.646;2023-04-22T05:17:31;15.57;;;14.17;;
13263;SDS011;6700;51.988;7.646;2023-04-22T05:19:58;15.57;;;14.07;;
13263;SDS011;6700;51.988;7.646;2023-04-22T05:22:26;16.43;;;14.83;;
13263;SDS011;6700;51.988;7.646;2023-04-22T05:24:53;14.73;;;13.20;;
13263;SDS011;6700;51.988;7.646;2023-04-22T05:27:20;16.73;;;14.50;;
13263;SDS011;6700;51.988;7.646;2023-04-22T05:29:47;14.77;;;13.17;;
13263;SDS011;6700;51.988;7.646;2023-04-22T05:32:14;13.93;;;12.57;;
13263;SDS011;6700;51.988;7.646;2023-04-22T05:34:41;14.50;;;13.20;;
13263;SDS011;6700;51.988;7.646;2023-04-22T05:37:08;14.77;;;13.27;;
13263;SDS011;6700;51.988;7.646;2023-04-22T05:39:36;14.07;;;12.33;;
13263;SDS011;6700;51.988;7.646;2023-04-22T05:42:03;14.83;;;13.33;;
13263;SDS011;6700;51.988;7.646;2023-04-22T05:44:30;14.23;;;12.83;;
13263;SDS011;6700;51.988;7.646;2023-04-22T05:46:57;13.43;;;12.03;;
13263;SDS011;6700;51.988;7.646;2023-04-22T05:49:24;13.90;;;12.50;;
13263;SDS011;6700;51.988;7.646;2023-04-22T05:51:51;14.30;;;12.80;;
13263;SDS011;6700;51.988;7.646;2023-04-22T05:54:18;13.90;;;12.67;;
13263;SDS011;6700;51.988;7.646;2023-04-22T05:56:45;14.33;;;12.93;;
13263;SDS011;6700;51.988;7.646;2023-04-22T05:59:12;12.80;;;11.60;;
13263;SDS011;6700;51.988;7.646;2023-04-22T06:01:40;13.13;;;12.03;;
13263;SDS011;6700;51.988;7.646;2023-04-22T06:04:08;14.07;;;12.67;;
13263;SDS011;6700;51.988;7.646;2023-04-22T06:06:37;14.20;;;12.80;;
13263;SDS011;6700;51.988;7.646;2023-04-22T06:09:04;13.00;;;11.90;;
13263;SDS011;6700;51.988;7.646;2023-04-22T06:11:32;13.97;;;12.20;;
13263;SDS011;6700;51.988;7.646;2023-04-22T06:13:59;12.17;;;11.03;;
13263;SDS011;6700;51.988;7.646;2023-04-22T06:16:26;12.57;;;11.13;;
13263;SDS011;6700;51.988;7.646;2023-04-22T06:18:53;11.60;;;10.57;;
13263;SDS011;6700;51.988;7.646;2023-04-22T06:21:20;13.77;;;11.53;;
13263;SDS011;6700;51.988;7.646;2023-04-22T06:23:47;11.93;;;10.80;;
13263;SDS011;6700;51.988;7.646;2023-04-22T06:26:14;13.00;;;11.80;;
13263;SDS011;6700;51.988;7.646;2023-04-22T06:28:41;12.20;;;11.00;;
13263;SDS011;6700;51.988;7.646;2023-04-22T06:31:09;13.47;;;11.10;;
13263;SDS011;6700;51.988;7.646;2023-04-22T06:33:36;12.43;;;11.30;;
13263;SDS011;6700;51.988;7.646;2023-04-22T06:36:03;12.50;;;11.40;;
13263;SDS011;6700;51.988;7.646;2023-04-22T06:38:30;11.87;;;10.83;;
13263;SDS011;6700;51.988;7.646;2023-04-22T06:40:57;12.63;;;11.43;;
13263;SDS011;6700;51.988;7.646;2023-04-22T06:43:25;14.47;;;13.07;;
13263;SDS011;6700;51.988;7.646;2023-04-22T06:45:52;15.03;;;13.60;;
13263;SDS011;6700;51.988;7.646;2023-04-22T06:48:19;16.17;;;13.57;;
13263;SDS011;6700;51.988;7.646;2023-04-22T06:50:46;13.73;;;12.43;;
13263;SDS011;6700;51.988;7.646;2023-04-22T06:53:13;16.63;;;12.50;;
13263;SDS011;6700;51.988;7.646;2023-04-22T06:55:40;13.17;;;12.07;;
13263;SDS011;6700;51.988;7.646;2023-04-22T06:58:07;15.90;;;13.10;;
13263;SDS011;6700;51.988;7.646;2023-04-22T07:00:34;12.80;;;11.50;;
13263;SDS011;6700;51.988;7.646;2023-04-22T07:03:01;11.43;;;10.43;;
13263;SDS011;6700;51.988;7.646;2023-04-22T07:05:29;12.90;;;11.57;;
13263;SDS011;6700;51.988;7.646;2023-04-22T07:07:57;11.50;;;10.40;;
13263;SDS011;6700;51.988;7.646;2023-04-22T07:10:24;11.07;;;10.17;;
13263;SDS011;6700;51.988;7.646;2023-04-22T07:12:51;12.40;;;10.83;;
13263;SDS011;6700;51.988;7.646;2023-04-22T07:15:18;10.60;;;9.60;;
13263;SDS011;6700;51.988;7.646;2023-04-22T07:17:45;11.73;;;9.10;;
13263;SDS011;6700;51.988;7.646;2023-04-22T07:20:12;11.47;;;9.77;;
13263;SDS011;6700;51.988;7.646;2023-04-22T07:22:39;9.87;;;8.87;;
13263;SDS011;6700;51.988;7.646;2023-04-22T07:25:07;9.97;;;9.17;;
13263;SDS011;6700;51.988;7.646;2023-04-22T07:27:34;9.40;;;8.50;;
13263;SDS011;6700;51.988;7.646;2023-04-22T07:30:02;10.70;;;9.30;;
13263;SDS011;6700;51.988;7.646;2023-04-22T07:32:29;8.97;;;7.67;;
13263;SDS011;6700;51.988;7.646;2023-04-22T07:34:56;9.67;;;8.70;;
13263;SDS011;6700;51.988;7.646;2023-04-22T07:37:23;9.37;;;8.20;;
13263;SDS011;6700;51.988;7.646;2023-04-22T07:39:51;8.47;;;7.70;;
13263;SDS011;6700;51.988;7.646;2023-04-22T07:42:18;13.63;;;8.03;;
13263;SDS011;6700;51.988;7.646;2023-04-22T07:44:45;9.17;;;8.20;;
13263;SDS011;6700;51.988;7.646;2023-04-22T07:47:12;8.97;;;8.10;;
13263;SDS011;6700;51.988;7.646;2023-04-22T07:49:39;8.50;;;7.70;;
13263;SDS011;6700;51.988;7.646;2023-04-22T07:52:08;9.50;;;7.37;;
13263;SDS011;6700;51.988;7.646;2023-04-22T07:54:35;8.87;;;7.93;;
13263;SDS011;6700;51.988;7.646;2023-04-22T07:57:02;8.07;;;7.27;;
13263;SDS011;6700;51.988;7.646;2023-04-22T07:59:29;7.73;;;6.87;;
13263;SDS011;6700;51.988;7.646;2023-04-22T08:01:56;7.77;;;7.07;;
13263;SDS011;6700;51.988;7.646;2023-04-22T08:04:23;7.97;;;7.13;;
13263;SDS011;6700;51.988;7.646;2023-04-22T08:06:51;7.53;;;6.77;;
13263;SDS011;6700;51.988;7.646;2023-04-22T08:09:18;7.73;;;7.03;;
13263;SDS011;6700;51.988;7.646;2023-04-22T08:11:45;9.23;;;7.20;;
13263;SDS011;6700;51.988;7.646;2023-04-22T08:14:12;7.53;;;6.93;;
13263;SDS011;6700;51.988;7.646;2023-04-22T08:16:40;6.93;;;6.33;;
13263;SDS011;6700;51.988;7.646;2023-04-22T08:19:07;12.47;;;7.30;;
13263;SDS011;6700;51.988;7.646;2023-04-22T08:21:34;6.40;;;5.90;;
13263;SDS011;6700;51.988;7.646;2023-04-22T08:24:02;6.60;;;6.00;;
13263;SDS011;6700;51.988;7.646;2023-04-22T08:26:29;7.37;;;6.13;;
13263;SDS011;6700;51.988;7.646;2023-04-22T08:28:56;7.57;;;6.77;;
13263;SDS011;6700;51.988;7.646;2023-04-22T08:31:23;6.37;;;5.87;;
13263;SDS011;6700;51.988;7.646;2023-04-22T08:33:50;6.87;;;6.27;;
13263;SDS011;6700;51.988;7.646;2023-04-22T08:36:17;5.90;;;5.40;;
13263;SDS011;6700;51.988;7.646;2023-04-22T08:38:48;6.10;;;5.50;;
13263;SDS011;6700;51.988;7.646;2023-04-22T08:41:15;6.03;;;5.50;;
13263;SDS011;6700;51.988;7.646;2023-04-22T08:43:44;6.13;;;5.47;;
13263;SDS011;6700;51.988;7.646;2023-04-22T08:46:11;7.23;;;4.97;;
13263;SDS011;6700;51.988;7.646;2023-04-22T08:48:40;5.83;;;5.23;;
13263;SDS011;6700;51.988;7.646;2023-04-22T08:51:07;4.63;;;4.27;;
13263;SDS011;6700;51.988;7.646;2023-04-22T08:53:34;5.23;;;4.70;;
13263;SDS011;6700;51.988;7.646;2023-04-22T08:56:01;5.40;;;4.90;;
13263;SDS011;6700;51.988;7.646;2023-04-22T08:58:29;5.17;;;4.67;;
13263;SDS011;6700;51.988;7.646;2023-04-22T09:00:56;5.47;;;4.17;;
13263;SDS011;6700;51.988;7.646;2023-04-22T09:03:23;7.37;;;4.30;;
13263;SDS011;6700;51.988;7.646;2023-04-22T09:05:51;6.10;;;4.33;;
13263;SDS011;6700;51.988;7.646;2023-04-22T09:08:18;4.70;;;4.40;;
13263;SDS011;6700;51.988;7.646;2023-04-22T09:10:46;6.17;;;4.50;;
13263;SDS011;6700;51.988;7.646;2023-04-22T09:13:13;5.57;;;3.97;;
13263;SDS011;6700;51.988;7.646;2023-04-22T09:15:40;5.40;;;4.30;;
13263;SDS011;6700;51.988;7.646;2023-04-22T09:18:08;5.03;;;4.50;;
13263;SDS011;6700;51.988;7.646;2023-04-22T09:20:35;4.87;;;3.90;;
13263;SDS011;6700;51.988;7.646;2023-04-22T09:23:03;4.90;;;4.50;;
13263;SDS011;6700;51.988;7.646;2023-04-22T09:25:31;9.17;;;4.33;;
13263;SDS011;6700;51.988;7.646;2023-04-22T09:27:59;5.27;;;4.20;;
13263;SDS011;6700;51.988;7.646;2023-04-22T09:32:55;4.67;;;4.20;;
13263;SDS011;6700;51.988;7.646;2023-04-22T09:37:56;5.40;;;4.00;;
13263;SDS011;6700;51.988;7.646;2023-04-22T09:40:24;5.63;;;4.40;;
13263;SDS011;6700;51.988;7.646;2023-04-22T09:42:52;11.03;;;4.60;;
13263;SDS011;6700;51.988;7.646;2023-04-22T09:45:35;6.07;;;4.53;;
13263;SDS011;6700;51.988;7.646;2023-04-22T09:48:07;4.73;;;4.00;;
13263;SDS011;6700;51.988;7.646;2023-04-22T09:50:35;4.50;;;4.10;;
13263;SDS011;6700;51.988;7.646;2023-04-22T09:53:03;4.63;;;4.10;;
13263;SDS011;6700;51.988;7.646;2023-04-22T09:55:33;5.37;;;4.00;;
13263;SDS011;6700;51.988;7.646;2023-04-22T09:58:08;5.67;;;4.33;;
13263;SDS011;6700;51.988;7.646;2023-04-22T10:00:40;5.77;;;4.20;;
13263;SDS011;6700;51.988;7.646;2023-04-22T10:03:07;4.40;;;4.00;;
13263;SDS011;6700;51.988;7.646;2023-04-22T10:05:36;4.60;;;4.20;;
13263;SDS011;6700;51.988;7.646;2023-04-22T10:08:04;6.67;;;4.13;;
13263;SDS011;6700;51.988;7.646;2023-04-22T10:10:31;4.77;;;3.87;;
13263;SDS011;6700;51.988;7.646;2023-04-22T10:12:59;4.83;;;4.33;;
13263;SDS011;6700;51.988;7.646;2023-04-22T10:15:30;4.43;;;3.70;;
13263;SDS011;6700;51.988;7.646;2023-04-22T10:17:57;4.93;;;4.10;;
13263;SDS011;6700;51.988;7.646;2023-04-22T10:20:25;4.43;;;3.47;;
13263;SDS011;6700;51.988;7.646;2023-04-22T10:22:55;6.53;;;3.63;;
13263;SDS011;6700;51.988;7.646;2023-04-22T10:25:25;4.93;;;3.30;;
13263;SDS011;6700;51.988;7.646;2023-04-22T10:28:02;3.60;;;3.30;;
13263;SDS011;6700;51.988;7.646;2023-04-22T10:30:31;3.40;;;3.20;;
13263;SDS011;6700;51.988;7.646;2023-04-22T10:38:33;3.97;;;2.87;;
13263;SDS011;6700;51.988;7.646;2023-04-22T10:41:01;4.03;;;2.67;;
13263;SDS011;6700;51.988;7.646;2023-04-22T10:43:44;2.30;;;2.10;;
13263;SDS011;6700;51.988;7.646;2023-04-22T10:48:58;2.72;;;2.35;;
13263;SDS011;6700;51.988;7.646;2023-04-22T10:51:38;2.70;;;2.43;;
13263;SDS011;6700;51.988;7.646;2023-04-22T10:54:06;3.90;;;2.65;;
13263;SDS011;6700;51.988;7.646;2023-04-22T10:56:33;4.03;;;2.72;;
13263;SDS011;6700;51.988;7.646;2023-04-22T10:59:16;3.92;;;2.92;;
13263;SDS011;6700;51.988;7.646;2023-04-22T11:01:43;3.88;;;2.72;;
13263;SDS011;6700;51.988;7.646;2023-04-22T11:04:22;3.37;;;2.67;;
13263;SDS011;6700;51.988;7.646;2023-04-22T11:09:39;3.42;;;3.13;;
13263;SDS011;6700;51.988;7.646;2023-04-22T11:14:52;4.53;;;2.45;;
13263;SDS011;6700;51.988;7.646;2023-04-22T11:17:19;3.88;;;2.47;;
13263;SDS011;6700;51.988;7.646;2023-04-22T11:19:47;3.70;;;2.95;;
13263;SDS011;6700;51.988;7.646;2023-04-22T11:22:14;3.00;;;2.70;;
13263;SDS011;6700;51.988;7.646;2023-04-22T11:24:51;3.40;;;3.05;;
13263;SDS011;6700;51.988;7.646;2023-04-22T11:27:19;3.17;;;2.88;;
13263;SDS011;6700;51.988;7.646;2023-04-22T11:30:04;4.43;;;2.63;;
13263;SDS011;6700;51.988;7.646;2023-04-22T11:32:35;7.00;;;2.72;;
13263;SDS011;6700;51.988;7.646;2023-04-22T11:35:03;3.00;;;2.70;;
13263;SDS011;6700;51.988;7.646;2023-04-22T11:37:38;3.50;;;2.72;;
13263;SDS011;6700;51.988;7.646;2023-04-22T11:40:06;3.17;;;2.50;;
13263;SDS011;6700;51.988;7.646;2023-04-22T11:42:53;3.67;;;2.40;;
13263;SDS011;6700;51.988;7.646;2023-04-22T11:45:21;6.53;;;2.50;;
13263;SDS011;6700;51.988;7.646;2023-04-22T11:47:49;3.53;;;2.25;;
13263;SDS011;6700;51.988;7.646;2023-04-22T11:50:17;3.38;;;2.35;;
13263;SDS011;6700;51.988;7.646;2023-04-22T11:57:44;5.35;;;2.50;;
13263;SDS011;6700;51.988;7.646;2023-04-22T12:00:12;5.35;;;2.80;;
13263;SDS011;6700;51.988;7.646;2023-04-22T12:02:40;2.95;;;2.45;;
13263;SDS011;6700;51.988;7.646;2023-04-22T12:05:09;2.78;;;2.58;;
13263;SDS011;6700;51.988;7.646;2023-04-22T12:07:41;3.55;;;2.28;;
13263;SDS011;6700;51.988;7.646;2023-04-22T12:10:09;2.60;;;2.17;;
13263;SDS011;6700;51.988;7.646;2023-04-22T12:12:38;4.15;;;2.30;;
13263;SDS011;6700;51.988;7.646;2023-04-22T12:15:07;3.22;;;2.60;;
13263;SDS011;6700;51.988;7.646;2023-04-22T12:17:38;2.22;;;2.03;;
13263;SDS011;6700;51.988;7.646;2023-04-22T12:20:07;6.80;;;2.30;;
13263;SDS011;6700;51.988;7.646;2023-04-22T12:22:38;2.45;;;2.25;;
13263;SDS011;6700;51.988;7.646;2023-04-22T12:25:05;2.80;;;2.15;;
13263;SDS011;6700;51.988;7.646;2023-04-22T12:27:32;3.03;;;2.45;;
13263;SDS011;6700;51.988;7.646;2023-04-22T12:29:59;5.13;;;2.30;;
13263;SDS011;6700;51.988;7.646;2023-04-22T12:32:26;3.08;;;2.47;;
13263;SDS011;6700;51.988;7.646;2023-04-22T12:34:53;4.50;;;2.35;;
13263;SDS011;6700;51.988;7.646;2023-04-22T12:37:21;3.65;;;2.30;;
13263;SDS011;6700;51.988;7.646;2023-04-22T12:39:48;3.20;;;2.50;;
13263;SDS011;6700;51.988;7.646;2023-04-22T12:42:16;2.55;;;2.35;;
13263;SDS011;6700;51.988;7.646;2023-04-22T12:44:43;3.08;;;2.78;;
13263;SDS011;6700;51.988;7.646;2023-04-22T12:47:10;2.35;;;2.15;;
13263;SDS011;6700;51.988;7.646;2023-04-22T12:49:37;2.85;;;2.60;;
13263;SDS011;6700;51.988;7.646;2023-04-22T12:52:04;3.45;;;2.83;;
13263;SDS011;6700;51.988;7.646;2023-04-22T12:54:31;6.13;;;3.03;;
13263;SDS011;6700;51.988;7.646;2023-04-22T12:56:59;5.15;;;3.58;;
13263;SDS011;6700;51.988;7.646;2023-04-22T12:59:27;5.13;;;3.65;;
13263;SDS011;6700;51.988;7.646;2023-04-22T13:01:54;4.03;;;3.00;;
13263;SDS011;6700;51.988;7.646;2023-04-22T13:04:21;2.38;;;2.25;;
13263;SDS011;6700;51.988;7.646;2023-04-22T13:06:49;3.58;;;2.92;;
13263;SDS011;6700;51.988;7.646;2023-04-22T13:09:24;4.32;;;2.80;;
13263;SDS011;6700;51.988;7.646;2023-04-22T13:11:52;7.25;;;3.47;;
13263;SDS011;6700;51.988;7.646;2023-04-22T13:14:19;3.83;;;3.00;;
13263;SDS011;6700;51.988;7.646;2023-04-22T13:16:46;4.60;;;3.33;;
13263;SDS011;6700;51.988;7.646;2023-04-22T13:19:13;3.83;;;3.10;;
13263;SDS011;6700;51.988;7.646;2023-04-22T13:21:40;5.22;;;3.03;;
13263;SDS011;6700;51.988;7.646;2023-04-22T13:24:07;4.15;;;3.28;;
13263;SDS011;6700;51.988;7.646;2023-04-22T13:26:35;7.07;;;3.70;;
13263;SDS011;6700;51.988;7.646;2023-04-22T13:29:03;4.70;;;3.15;;
13263;SDS011;6700;51.988;7.646;2023-04-22T13:31:36;7.00;;;4.00;;
13263;SDS011;6700;51.988;7.646;2023-04-22T13:34:04;8.98;;;4.85;;
13263;SDS011;6700;51.988;7.646;2023-04-22T13:36:31;6.20;;;4.90;;
13263;SDS011;6700;51.988;7.646;2023-04-22T13:38:58;7.85;;;5.00;;
13263;SDS011;6700;51.988;7.646;2023-04-22T13:41:26;4.78;;;3.40;;
13263;SDS011;6700;51.988;7.646;2023-04-22T13:43:53;4.75;;;3.20;;
13263;SDS011;6700;51.988;7.646;2023-04-22T13:46:21;6.80;;;5.00;;
13263;SDS011;6700;51.988;7.646;2023-04-22T13:48:48;4.38;;;3.28;;
13263;SDS011;6700;51.988;7.646;2023-04-22T13:51:15;6.10;;;5.50;;
13263;SDS011;6700;51.988;7.646;2023-04-22T13:53:42;6.50;;;4.88;;
13263;SDS011;6700;51.988;7.646;2023-04-22T13:56:10;3.53;;;3.22;;
13263;SDS011;6700;51.988;7.646;2023-04-22T13:58:38;6.35;;;4.38;;
13263;SDS011;6700;51.988;7.646;2023-04-22T14:01:06;5.65;;;3.88;;
13263;SDS011;6700;51.988;7.646;2023-04-22T14:03:33;4.25;;;3.22;;
13263;SDS011;6700;51.988;7.646;2023-04-22T14:06:01;4.20;;;3.80;;
13263;SDS011;6700;51.988;7.646;2023-04-22T14:08:29;5.53;;;3.35;;
13263;SDS011;6700;51.988;7.646;2023-04-22T14:10:56;3.22;;;2.72;;
13263;SDS011;6700;51.988;7.646;2023-04-22T14:13:27;5.72;;;3.20;;
13263;SDS011;6700;51.988;7.646;2023-04-22T14:15:54;4.95;;;3.13;;
13263;SDS011;6700;51.988;7.646;2023-04-22T14:18:21;3.45;;;3.15;;
13263;SDS011;6700;51.988;7.646;2023-04-22T14:20:49;3.92;;;2.67;;
13263;SDS011;6700;51.988;7.646;2023-04-22T14:23:16;5.20;;;2.80;;
13263;SDS011;6700;51.988;7.646;2023-04-22T14:25:44;4.07;;;3.35;;
13263;SDS011;6700;51.988;7.646;2023-04-22T14:28:12;5.95;;;3.33;;
13263;SDS011;6700;51.988;7.646;2023-04-22T14:30:39;6.35;;;3.00;;
13263;SDS011;6700;51.988;7.646;2023-04-22T14:33:07;5.80;;;3.33;;
13263;SDS011;6700;51.988;7.646;2023-04-22T14:35:34;5.15;;;2.80;;
13263;SDS011;6700;51.988;7.646;2023-04-22T14:38:02;7.15;;;3.65;;
13263;SDS011;6700;51.988;7.646;2023-04-22T14:40:30;5.00;;;2.75;;
13263;SDS011;6700;51.988;7.646;2023-04-22T14:42:57;7.63;;;3.42;;
13263;SDS011;6700;51.988;7.646;2023-04-22T14:45:25;6.95;;;3.67;;
13263;SDS011;6700;51.988;7.646;2023-04-22T14:47:52;3.33;;;2.92;;
13263;SDS011;6700;51.988;7.646;2023-04-22T14:50:19;4.22;;;3.08;;
13263;SDS011;6700;51.988;7.646;2023-04-22T14:52:46;3.47;;;3.03;;
13263;SDS011;6700;51.988;7.646;2023-04-22T14:55:13;3.83;;;3.33;;
13263;SDS011;6700;51.988;7.646;2023-04-22T14:57:49;4.40;;;3.10;;
13263;SDS011;6700;51.988;7.646;2023-04-22T15:00:17;6.72;;;3.25;;
13263;SDS011;6700;51.988;7.646;2023-04-22T15:02:44;6.23;;;3.50;;
13263;SDS011;6700;51.988;7.646;2023-04-22T15:05:11;4.25;;;3.22;;
13263;SDS011;6700;51.988;7.646;2023-04-22T15:07:38;6.97;;;2.97;;
13263;SDS011;6700;51.988;7.646;2023-04-22T15:10:06;4.25;;;3.20;;
13263;SDS011;6700;51.988;7.646;2023-04-22T15:12:33;3.83;;;3.30;;
13263;SDS011;6700;51.988;7.646;2023-04-22T15:15:00;4.68;;;2.85;;
13263;SDS011;6700;51.988;7.646;2023-04-22T15:17:27;3.30;;;3.00;;